Time;durP1;ratioP1;P1;durP2;ratioP2;P2;SDS_P1;SDS_P2;PMS_P1;PMS_P2;Temp;Humidity;BMP_temperature;BMP_pressure;BME280_temperature;BME280_humidity;BME280_pressure;Samples;Min_cycle;Max_cycle;Signal;HPM_P1;HPM_P2
2022/04/14 00:02:19;;;;;;;5.97;3.93;;;16.90;43.30;;;;;;20572;6822;307826;-76
2022/04/14 00:04:45;;;;;;;4.67;3.90;;;17.20;42.70;;;;;;20559;6823;307977;-76
2022/04/14 00:07:10;;;;;;;8.30;3.30;;;17.30;42.20;;;;;;20786;6823;117238;-76
2022/04/14 00:09:36;;;;;;;7.12;3.60;;;17.10;42.40;;;;;;20789;6823;122056;-76
2022/04/14 00:12:01;;;;;;;6.43;3.60;;;16.70;42.80;;;;;;20570;6823;308560;-76
2022/04/14 00:14:26;;;;;;;5.27;3.47;;;16.70;43.60;;;;;;20786;6823;117093;-76
2022/04/14 00:16:52;;;;;;;6.72;3.80;;;16.60;43.60;;;;;;20565;6823;278939;-76
2022/04/14 00:19:18;;;;;;;5.72;3.78;;;16.90;42.90;;;;;;20578;6823;340811;-77
2022/04/14 00:21:44;;;;;;;6.37;3.40;;;16.90;43.20;;;;;;20789;6823;117543;-76
2022/04/14 00:24:10;;;;;;;4.90;3.80;;;16.80;43.20;;;;;;20784;6823;118541;-79
2022/04/14 00:26:35;;;;;;;4.77;3.37;;;16.40;43.40;;;;;;20771;6823;117527;-76
2022/04/14 00:29:01;;;;;;;7.80;3.92;;;16.20;43.90;;;;;;20583;6823;307920;-76
2022/04/14 00:31:27;;;;;;;6.57;3.33;;;16.30;44.00;;;;;;20788;6823;117061;-76
2022/04/14 00:33:52;;;;;;;5.30;3.80;;;16.20;43.90;;;;;;20585;6823;282117;-79
2022/04/14 00:36:18;;;;;;;3.90;3.40;;;16.40;44.40;;;;;;20785;6823;117828;-76
2022/04/14 00:38:44;;;;;;;4.77;3.53;;;16.40;44.30;;;;;;20749;6823;117570;-76
2022/04/14 00:41:10;;;;;;;5.90;3.80;;;16.30;44.50;;;;;;20575;6824;281713;-76
2022/04/14 00:43:36;;;;;;;5.30;3.50;;;16.30;44.50;;;;;;20789;6824;117807;-76
2022/04/14 00:46:01;;;;;;;4.83;3.80;;;16.20;44.40;;;;;;20782;6824;117551;-76
2022/04/14 00:48:30;;;;;;;8.57;4.07;;;16.00;44.70;;;;;;20569;6824;297358;-76
2022/04/14 00:50:55;;;;;;;8.57;4.27;;;16.20;44.90;;;;;;20766;6824;119832;-75
2022/04/14 00:53:22;;;;;;;6.43;4.00;;;16.30;44.60;;;;;;20569;6824;277997;-76
2022/04/14 00:55:47;;;;;;;5.70;3.70;;;16.20;44.40;;;;;;20782;6824;116988;-76
2022/04/14 00:58:13;;;;;;;5.17;3.87;;;16.10;44.30;;;;;;20759;6824;117577;-74
2022/04/14 01:00:38;;;;;;;8.43;3.83;;;15.80;44.50;;;;;;20750;6824;117127;-76
2022/04/14 01:03:04;;;;;;;7.37;4.30;;;15.60;44.90;;;;;;20563;6824;313237;-76
2022/04/14 01:05:29;;;;;;;5.03;4.18;;;15.70;45.10;;;;;;20741;6824;118294;-76
2022/04/14 01:07:55;;;;;;;8.97;3.83;;;15.70;45.00;;;;;;20767;6824;121305;-76
2022/04/14 01:10:20;;;;;;;7.12;4.35;;;15.50;45.20;;;;;;20535;6824;307285;-76
2022/04/14 01:12:46;;;;;;;4.77;3.60;;;15.60;45.40;;;;;;20711;6824;121982;-76
2022/04/14 01:15:12;;;;;;;6.12;3.97;;;15.70;45.10;;;;;;20567;6822;277868;-76
2022/04/14 01:17:38;;;;;;;6.60;4.30;;;15.70;45.10;;;;;;20552;6823;281027;-76
2022/04/14 01:20:04;;;;;;;4.13;3.67;;;16.00;44.50;;;;;;20763;6823;117291;-77
2022/04/14 01:22:30;;;;;;;5.67;3.93;;;15.90;44.50;;;;;;20577;6823;307828;-75
2022/04/14 01:24:55;;;;;;;6.43;4.30;;;15.90;44.60;;;;;;20523;6823;280882;-76
2022/04/14 01:27:24;;;;;;;6.30;4.18;;;16.20;44.00;;;;;;20572;6823;278410;-76
2022/04/14 01:29:53;;;;;;;7.60;4.17;;;16.20;44.00;;;;;;20572;6823;306848;-76
2022/04/14 01:32:16;;;;;;;7.18;4.00;;;16.10;45.10;;;;;;20763;6823;117002;-76
2022/04/14 01:34:42;;;;;;;5.40;3.90;;;16.10;44.40;;;;;;20579;6823;318572;-76
2022/04/14 01:37:08;;;;;;;5.87;4.30;;;16.10;44.70;;;;;;20578;6823;308159;-75
2022/04/14 01:39:33;;;;;;;6.03;3.87;;;16.20;44.20;;;;;;20782;6823;123869;-76
2022/04/14 01:41:58;;;;;;;6.70;4.13;;;16.00;44.30;;;;;;20578;6823;277961;-76
2022/04/14 01:44:24;;;;;;;9.27;4.20;;;16.00;44.40;;;;;;20573;6823;336511;-75
2022/04/14 01:46:51;;;;;;;5.40;3.90;;;16.10;44.10;;;;;;20770;6823;117414;-76
2022/04/14 01:49:16;;;;;;;6.27;4.50;;;15.90;44.30;;;;;;20574;6823;313937;-76
2022/04/14 01:51:42;;;;;;;5.70;3.57;;;15.80;44.40;;;;;;20784;6823;117721;-76
2022/04/14 01:54:07;;;;;;;4.47;4.18;;;15.60;44.70;;;;;;20581;6824;277963;-76
2022/04/14 01:56:33;;;;;;;6.00;4.10;;;15.50;44.90;;;;;;20554;6824;336047;-76
2022/04/14 01:58:58;;;;;;;6.47;4.20;;;15.70;45.50;;;;;;20790;6824;117304;-76
2022/04/14 02:01:24;;;;;;;6.03;4.30;;;15.50;45.00;;;;;;20572;6824;311847;-76
2022/04/14 02:03:50;;;;;;;7.35;4.10;;;15.40;45.30;;;;;;20789;6824;117212;-76
2022/04/14 02:06:15;;;;;;;5.75;4.10;;;15.20;45.30;;;;;;20566;6824;344949;-76
2022/04/14 02:08:41;;;;;;;5.62;4.15;;;15.30;45.60;;;;;;20562;6824;277462;-76
2022/04/14 02:11:07;;;;;;;5.83;4.20;;;15.60;45.30;;;;;;20579;6824;282225;-76
2022/04/14 02:13:33;;;;;;;6.40;4.00;;;15.60;45.30;;;;;;20783;6824;117099;-76
2022/04/14 02:15:59;;;;;;;4.87;4.30;;;15.00;45.90;;;;;;20772;6824;118673;-76
2022/04/14 02:18:24;;;;;;;8.27;4.10;;;15.00;45.90;;;;;;20782;6824;117096;-76
2022/04/14 02:20:51;;;;;;;4.70;4.10;;;14.70;46.40;;;;;;20765;6824;117505;-76
2022/04/14 02:23:17;;;;;;;4.90;4.40;;;14.50;46.70;;;;;;20573;6824;319011;-76
2022/04/14 02:25:42;;;;;;;7.10;4.43;;;14.70;47.20;;;;;;20578;6822;307886;-76
2022/04/14 02:28:08;;;;;;;3.93;3.63;;;15.00;46.70;;;;;;20787;6823;121259;-76
2022/04/14 02:30:33;;;;;;;7.40;4.00;;;14.90;46.50;;;;;;20765;6823;117168;-77
2022/04/14 02:32:59;;;;;;;7.63;4.50;;;14.70;46.70;;;;;;20568;6823;307070;-76
2022/04/14 02:35:25;;;;;;;4.17;3.87;;;14.90;46.60;;;;;;20775;6823;117392;-76
2022/04/14 02:37:50;;;;;;;5.53;4.47;;;14.80;46.50;;;;;;20574;6823;277611;-76
2022/04/14 02:40:16;;;;;;;8.53;4.70;;;14.90;46.50;;;;;;20566;6823;315688;-76
2022/04/14 02:42:41;;;;;;;6.87;4.30;;;15.10;46.00;;;;;;20532;6823;335754;-76
2022/04/14 02:45:07;;;;;;;4.47;3.67;;;15.30;45.80;;;;;;20786;6823;119432;-76
2022/04/14 02:47:35;;;;;;;5.97;3.77;;;15.10;45.90;;;;;;20784;6823;117066;-77
2022/04/14 02:49:59;;;;;;;7.85;4.35;;;14.80;46.50;;;;;;20563;6823;341311;-76
2022/04/14 02:52:25;;;;;;;5.43;4.07;;;14.90;46.70;;;;;;20571;6823;312337;-76
2022/04/14 02:54:51;;;;;;;7.83;4.43;;;15.20;46.20;;;;;;20557;6823;281559;-77
2022/04/14 02:57:16;;;;;;;8.18;4.60;;;15.30;45.80;;;;;;20574;6823;277086;-76
2022/04/14 02:59:42;;;;;;;3.85;3.55;;;15.50;45.60;;;;;;20787;6823;117224;-77
2022/04/14 03:02:07;;;;;;;4.97;3.70;;;15.20;45.80;;;;;;20793;6823;117172;-76
2022/04/14 03:04:33;;;;;;;7.03;4.13;;;14.90;46.40;;;;;;20562;6824;278986;-77
2022/04/14 03:06:58;;;;;;;6.55;4.20;;;15.00;46.70;;;;;;20585;6824;277901;-76
2022/04/14 03:09:24;;;;;;;6.30;4.60;;;15.20;46.20;;;;;;20575;6824;313231;-77
2022/04/14 03:11:49;;;;;;;5.07;4.23;;;15.40;45.90;;;;;;20787;6824;122455;-76
2022/04/14 03:14:16;;;;;;;9.50;4.10;;;15.20;46.00;;;;;;20787;6824;117537;-76
2022/04/14 03:16:42;;;;;;;4.30;3.90;;;14.90;46.40;;;;;;20731;6824;121182;-79
2022/04/14 03:19:07;;;;;;;9.02;3.95;;;14.60;46.80;;;;;;20556;6824;331097;-76
2022/04/14 03:21:33;;;;;;;9.53;4.00;;;14.70;47.10;;;;;;20775;6824;117435;-76
2022/04/14 03:23:58;;;;;;;9.23;4.17;;;14.70;46.90;;;;;;20564;6824;277138;-76
2022/04/14 03:26:24;;;;;;;7.30;5.87;;;14.90;46.80;;;;;;20562;6824;306363;-76
2022/04/14 03:28:49;;;;;;;10.07;7.37;;;15.20;46.40;;;;;;20546;6824;307409;-76
2022/04/14 03:31:15;;;;;;;7.97;5.00;;;15.40;45.80;;;;;;20555;6824;312736;-76
2022/04/14 03:33:40;;;;;;;4.90;3.90;;;15.60;45.50;;;;;;20546;6824;306648;-75
2022/04/14 03:36:06;;;;;;;5.47;4.47;;;15.60;45.20;;;;;;20566;6824;307375;-75
2022/04/14 03:38:32;;;;;;;6.23;4.40;;;15.70;45.20;;;;;;20558;6822;277879;-76
2022/04/14 03:40:59;;;;;;;4.50;4.10;;;15.80;45.20;;;;;;20769;6823;123595;-77
2022/04/14 03:43:23;;;;;;;6.07;4.30;;;15.40;46.00;;;;;;20572;6823;277559;-79
2022/04/14 03:45:49;;;;;;;5.65;4.12;;;15.40;46.00;;;;;;20584;6823;278357;-77
2022/04/14 03:48:15;;;;;;;5.82;4.12;;;15.60;45.70;;;;;;20574;6823;336005;-76
2022/04/14 03:50:40;;;;;;;5.87;3.73;;;15.70;45.40;;;;;;20771;6823;117440;-77
2022/04/14 03:53:06;;;;;;;6.15;4.30;;;15.40;45.50;;;;;;20575;6823;340831;-77
2022/04/14 03:55:31;;;;;;;5.20;4.00;;;15.30;45.90;;;;;;20789;6823;117836;-76
2022/04/14 03:57:57;;;;;;;4.60;4.00;;;14.80;46.60;;;;;;20792;6823;116927;-81
2022/04/14 04:00:23;;;;;;;7.87;4.80;;;14.70;46.50;;;;;;20581;6823;308913;-77
2022/04/14 04:02:49;;;;;;;5.33;4.30;;;14.80;47.00;;;;;;20779;6823;123973;-76
2022/04/14 04:05:15;;;;;;;6.13;4.53;;;14.70;47.30;;;;;;20572;6823;281610;-76
2022/04/14 04:07:40;;;;;;;8.18;4.43;;;14.80;47.40;;;;;;20568;6823;336865;-76
2022/04/14 04:10:06;;;;;;;8.43;4.57;;;15.00;46.90;;;;;;20569;6823;326851;-76
2022/04/14 04:12:32;;;;;;;7.87;4.77;;;15.30;46.70;;;;;;20573;6823;306760;-77
2022/04/14 04:14:59;;;;;;;6.43;4.50;;;15.20;46.40;;;;;;20769;6823;118528;-77
2022/04/14 04:17:25;;;;;;;6.47;4.13;;;15.20;46.40;;;;;;20781;6824;117293;-79
2022/04/14 04:19:52;;;;;;;7.25;5.00;;;14.90;47.80;;;;;;20574;6824;309966;-77
2022/04/14 04:22:17;;;;;;;14.00;4.67;;;14.90;47.00;;;;;;20788;6824;117481;-77
2022/04/14 04:24:43;;;;;;;6.80;4.57;;;14.80;47.00;;;;;;20538;6824;336123;-77
2022/04/14 04:27:09;;;;;;;7.13;4.47;;;15.00;46.50;;;;;;20571;6824;307946;-77
2022/04/14 04:29:35;;;;;;;8.20;4.50;;;15.00;46.50;;;;;;20578;6824;278416;-76
2022/04/14 04:32:00;;;;;;;5.00;4.27;;;15.10;46.40;;;;;;20785;6824;117550;-77
2022/04/14 04:34:26;;;;;;;4.80;4.30;;;14.80;46.50;;;;;;20575;6824;336020;-78
2022/04/14 04:36:51;;;;;;;7.45;4.60;;;14.80;46.50;;;;;;20770;6824;117822;-77
2022/04/14 04:39:17;;;;;;;9.32;4.70;;;14.60;46.70;;;;;;20574;6824;335988;-78
2022/04/14 04:41:42;;;;;;;5.60;4.47;;;14.50;47.10;;;;;;20785;6824;117032;-78
2022/04/14 04:44:09;;;;;;;4.50;4.10;;;14.10;47.70;;;;;;20792;6824;117264;-77
2022/04/14 04:46:34;;;;;;;7.40;4.70;;;14.00;48.30;;;;;;20556;6824;312615;-78
2022/04/14 04:49:00;;;;;;;7.27;5.20;;;14.20;47.80;;;;;;20790;6822;117308;-77
2022/04/14 04:51:26;;;;;;;9.27;5.83;;;13.80;48.00;;;;;;20789;6823;117321;-78
2022/04/14 04:53:53;;;;;;;4.43;4.10;;;13.60;48.30;;;;;;20785;6823;117515;-77
2022/04/14 04:56:18;;;;;;;6.57;4.40;;;13.60;48.30;;;;;;20580;6823;277750;-77
2022/04/14 04:58:44;;;;;;;5.57;4.87;;;13.80;48.50;;;;;;20558;6823;307902;-78
2022/04/14 05:01:09;;;;;;;6.03;4.68;;;14.10;48.00;;;;;;20575;6823;311843;-78
2022/04/14 05:03:35;;;;;;;6.00;4.50;;;14.40;47.40;;;;;;20576;6823;307220;-77
2022/04/14 05:06:01;;;;;;;6.97;4.77;;;14.70;47.60;;;;;;20575;6823;306979;-77
2022/04/14 05:08:26;;;;;;;6.90;4.50;;;14.70;46.90;;;;;;20570;6823;307450;-77
2022/04/14 05:10:52;;;;;;;5.00;4.07;;;14.80;47.00;;;;;;20763;6823;117696;-78
2022/04/14 05:13:19;;;;;;;6.30;4.83;;;14.60;47.20;;;;;;20573;6823;307467;-78
2022/04/14 05:15:44;;;;;;;9.03;4.90;;;14.60;47.20;;;;;;20779;6823;118154;-78
2022/04/14 05:18:10;;;;;;;7.62;5.97;;;14.50;47.30;;;;;;20556;6823;307883;-81
2022/04/14 05:20:35;;;;;;;5.85;4.45;;;14.60;47.40;;;;;;20764;6823;119318;-80
2022/04/14 05:23:01;;;;;;;6.33;4.87;;;14.50;47.50;;;;;;20799;6823;117528;-79
2022/04/14 05:25:27;;;;;;;6.20;4.15;;;14.00;48.20;;;;;;20794;6823;117126;-78
2022/04/14 05:27:53;;;;;;;6.17;4.30;;;14.00;48.20;;;;;;20794;6824;118242;-79
2022/04/14 05:30:18;;;;;;;7.43;4.77;;;13.90;48.60;;;;;;20579;6824;301663;-81
2022/04/14 05:32:44;;;;;;;8.60;4.87;;;14.10;48.80;;;;;;20778;6824;118815;-80
2022/04/14 05:35:10;;;;;;;5.78;4.62;;;14.20;48.50;;;;;;20589;6824;336061;-78
2022/04/14 05:37:35;;;;;;;5.20;4.77;;;14.40;48.60;;;;;;20788;6824;117118;-80
2022/04/14 05:40:01;;;;;;;6.78;4.65;;;14.40;48.40;;;;;;20583;6824;307380;-80
2022/04/14 05:42:26;;;;;;;6.43;4.47;;;14.60;48.50;;;;;;20773;6824;117561;-82
2022/04/14 05:44:52;;;;;;;8.13;4.87;;;14.60;48.40;;;;;;20565;6824;350282;-80
2022/04/14 05:47:17;;;;;;;7.60;5.67;;;14.80;48.30;;;;;;20795;6824;117429;-81
2022/04/14 05:49:43;;;;;;;11.93;9.13;;;14.80;48.30;;;;;;20799;6824;117579;-80
2022/04/14 05:52:08;;;;;;;25.70;16.30;;;14.70;48.60;;;;;;20803;6824;118220;-80
2022/04/14 05:54:34;;;;;;;26.87;20.17;;;14.60;48.90;;;;;;20573;6824;317536;-82
2022/04/14 05:57:00;;;;;;;23.80;16.03;;;14.90;49.10;;;;;;20810;6824;118262;-82
2022/04/14 05:59:25;;;;;;;22.57;18.50;;;14.90;48.70;;;;;;20603;6824;307430;-81
2022/04/14 06:01:51;;;;;;;23.07;17.40;;;15.20;48.70;;;;;;20600;6822;306969;-80
2022/04/14 06:04:16;;;;;;;7.60;5.80;;;15.60;48.10;;;;;;20603;6823;308449;-82
2022/04/14 06:06:42;;;;;;;4.90;4.43;;;15.90;47.20;;;;;;20786;6823;117107;-82
2022/04/14 06:09:07;;;;;;;8.17;4.20;;;15.80;47.00;;;;;;20789;6823;117245;-81
2022/04/14 06:11:33;;;;;;;5.73;4.07;;;15.60;47.30;;;;;;20793;6823;117217;-81
2022/04/14 06:13:58;;;;;;;6.43;4.87;;;15.30;47.40;;;;;;20593;6823;277578;-82
2022/04/14 06:16:25;;;;;;;7.40;4.73;;;15.50;47.40;;;;;;20595;6823;306571;-81
2022/04/14 06:18:51;;;;;;;4.73;4.33;;;15.80;46.70;;;;;;20793;6823;117141;-81
2022/04/14 06:21:18;;;;;;;7.93;4.62;;;15.70;46.60;;;;;;20609;6823;276645;-79
2022/04/14 06:23:42;;;;;;;7.93;4.40;;;15.80;46.30;;;;;;20796;6823;118132;-79
2022/04/14 06:26:08;;;;;;;5.20;4.27;;;15.80;46.80;;;;;;20820;6823;122008;-79
2022/04/14 06:28:34;;;;;;;8.70;4.60;;;15.70;47.30;;;;;;20579;6823;307416;-78
2022/04/14 06:30:59;;;;;;;6.05;4.50;;;16.00;47.00;;;;;;20591;6823;301073;-80
2022/04/14 06:33:25;;;;;;;4.93;4.10;;;16.50;46.40;;;;;;20818;6823;118581;-82
2022/04/14 06:35:50;;;;;;;5.60;4.23;;;16.50;46.40;;;;;;20591;6823;306116;-84
2022/04/14 06:38:19;;;;;;;6.25;4.72;;;16.70;46.00;;;;;;20594;6823;307008;-82
2022/04/14 06:40:44;;;;;;;6.90;4.60;;;17.10;45.20;;;;;;20758;6824;119315;-79
2022/04/14 06:43:10;;;;;;;5.97;4.03;;;17.10;45.30;;;;;;20784;6824;117488;-79
2022/04/14 06:45:35;;;;;;;6.53;4.60;;;17.00;45.60;;;;;;20771;6824;117225;-79
2022/04/14 06:48:02;;;;;;;5.93;4.90;;;16.70;46.00;;;;;;20788;6824;117158;-77
2022/04/14 06:50:27;;;;;;;5.20;4.43;;;16.70;46.00;;;;;;20768;6824;117109;-74
2022/04/14 06:52:53;;;;;;;7.67;5.10;;;16.70;46.20;;;;;;20551;6824;306558;-76
2022/04/14 06:55:21;;;;;;;7.20;4.77;;;17.00;45.80;;;;;;20573;6824;278341;-77
2022/04/14 06:57:44;;;;;;;6.20;4.95;;;17.40;45.90;;;;;;20548;6824;341792;-76
2022/04/14 07:00:10;;;;;;;6.03;4.90;;;17.80;44.70;;;;;;20785;6824;117133;-73
2022/04/14 07:02:35;;;;;;;9.47;4.93;;;17.90;44.80;;;;;;20544;6824;307020;-74
2022/04/14 07:05:02;;;;;;;8.17;4.53;;;18.20;44.90;;;;;;20735;6824;117279;-76
2022/04/14 07:07:27;;;;;;;7.40;4.80;;;18.20;44.30;;;;;;20783;6824;117785;-76
2022/04/14 07:09:53;;;;;;;8.27;5.33;;;18.10;44.40;;;;;;20560;6824;321100;-77
2022/04/14 07:12:19;;;;;;;8.23;4.70;;;18.50;43.70;;;;;;20780;6822;118021;-77
2022/04/14 07:14:44;;;;;;;7.18;5.68;;;18.40;43.60;;;;;;20538;6823;337254;-78
2022/04/14 07:17:10;;;;;;;8.75;5.35;;;18.70;43.50;;;;;;20579;6823;337921;-80
2022/04/14 07:19:36;;;;;;;7.03;4.60;;;19.10;42.60;;;;;;20792;6823;117735;-77
2022/04/14 07:22:02;;;;;;;7.07;6.00;;;19.10;42.80;;;;;;20581;6823;278515;-77
2022/04/14 07:24:27;;;;;;;9.73;5.53;;;19.30;42.50;;;;;;20800;6823;117018;-77
2022/04/14 07:26:53;;;;;;;9.63;6.07;;;19.30;42.50;;;;;;20776;6823;117261;-76
2022/04/14 07:29:19;;;;;;;8.30;6.40;;;19.20;42.80;;;;;;20576;6823;344049;-74
2022/04/14 07:31:45;;;;;;;10.23;6.30;;;19.40;42.80;;;;;;20789;6823;117617;-76
2022/04/14 07:34:14;;;;;;;7.90;7.03;;;19.40;43.10;;;;;;20784;6823;118067;-76
2022/04/14 07:36:38;;;;;;;9.40;8.43;;;19.40;43.10;;;;;;20553;6823;307040;-78
2022/04/14 07:39:04;;;;;;;10.50;8.52;;;19.70;42.50;;;;;;20577;6823;307014;-76
2022/04/14 07:41:29;;;;;;;9.23;8.30;;;20.10;42.30;;;;;;20563;6823;278039;-76
2022/04/14 07:43:56;;;;;;;12.02;9.18;;;20.50;41.70;;;;;;20575;6823;311907;-77
2022/04/14 07:46:20;;;;;;;12.07;9.10;;;20.90;41.60;;;;;;20780;6823;119761;-76
2022/04/14 07:48:46;;;;;;;10.87;9.60;;;20.90;41.80;;;;;;20780;6823;117704;-74
2022/04/14 07:51:11;;;;;;;9.87;8.97;;;20.70;42.00;;;;;;20795;6824;117360;-75
2022/04/14 07:53:37;;;;;;;14.20;10.47;;;20.60;42.30;;;;;;20795;6824;117100;-75
2022/04/14 07:56:06;;;;;;;13.17;11.50;;;20.60;42.70;;;;;;20794;6824;120170;-76
2022/04/14 07:58:33;;;;;;;13.90;12.43;;;20.60;43.70;;;;;;20783;6824;117744;-74
2022/04/14 08:00:58;;;;;;;14.77;13.27;;;21.00;42.60;;;;;;20546;6824;307869;-74
2022/04/14 08:03:23;;;;;;;13.83;12.40;;;21.00;42.60;;;;;;20788;6824;117881;-75
2022/04/14 08:05:49;;;;;;;15.23;13.83;;;21.20;42.50;;;;;;20578;6824;277925;-75
2022/04/14 08:08:14;;;;;;;15.80;13.50;;;21.50;42.40;;;;;;20790;6824;117430;-73
2022/04/14 08:10:40;;;;;;;16.17;14.57;;;21.60;42.10;;;;;;20552;6824;304170;-74
2022/04/14 08:13:06;;;;;;;17.87;14.07;;;21.90;42.30;;;;;;20785;6824;118077;-73
2022/04/14 08:15:32;;;;;;;13.93;12.50;;;21.80;41.90;;;;;;20790;6824;119124;-73
2022/04/14 08:17:57;;;;;;;16.33;12.90;;;21.80;41.90;;;;;;20789;6824;117842;-73
2022/04/14 08:20:24;;;;;;;15.27;13.40;;;21.60;42.00;;;;;;20793;6824;117529;-74
2022/04/14 08:22:49;;;;;;;15.20;13.60;;;21.60;42.00;;;;;;20566;6824;283293;-75
2022/04/14 08:25:15;;;;;;;14.55;13.18;;;21.80;41.70;;;;;;20580;6822;313589;-74
2022/04/14 08:27:42;;;;;;;14.97;13.47;;;22.20;41.10;;;;;;20560;6823;278477;-75
2022/04/14 08:30:07;;;;;;;14.83;13.50;;;22.60;40.30;;;;;;20582;6823;277997;-76
2022/04/14 08:32:34;;;;;;;15.00;13.50;;;22.80;39.80;;;;;;20559;6823;307168;-78
2022/04/14 08:34:59;;;;;;;14.63;12.97;;;23.10;40.40;;;;;;20521;6841;322605;-74
2022/04/14 08:37:25;;;;;;;14.67;13.30;;;23.10;40.40;;;;;;20718;6841;117821;-74
2022/04/14 08:39:51;;;;;;;17.37;13.37;;;23.00;40.50;;;;;;20521;6841;342233;-74
2022/04/14 08:42:16;;;;;;;14.60;13.07;;;23.10;40.80;;;;;;20570;6823;279421;-75
2022/04/14 08:44:42;;;;;;;15.27;13.47;;;23.40;40.10;;;;;;20528;6823;312131;-76
2022/04/14 08:47:08;;;;;;;18.93;12.00;;;23.70;40.00;;;;;;20791;6823;121458;-75
2022/04/14 08:49:33;;;;;;;12.77;11.63;;;23.60;39.80;;;;;;20795;6823;117349;-73
2022/04/14 08:51:58;;;;;;;14.30;13.10;;;23.50;40.00;;;;;;20581;6823;309628;-75
2022/04/14 08:54:24;;;;;;;15.40;13.80;;;23.60;39.70;;;;;;20585;6823;305267;-74
2022/04/14 08:56:51;;;;;;;16.30;14.57;;;23.70;39.10;;;;;;20557;6823;341177;-76
2022/04/14 08:59:18;;;;;;;19.02;14.10;;;24.10;39.30;;;;;;20572;6823;311938;-76
2022/04/14 09:01:56;;;;;;;14.40;13.10;;;24.10;39.30;;;;;;20574;6823;278956;-74
2022/04/14 09:04:20;;;;;;;13.37;12.07;;;24.30;39.60;;;;;;20776;6823;117944;-74
2022/04/14 09:06:45;;;;;;;15.67;13.40;;;24.30;39.40;;;;;;20552;6823;307537;-74
2022/04/14 09:09:11;;;;;;;13.63;12.30;;;24.30;39.30;;;;;;20565;6823;293196;-73
2022/04/14 09:11:38;;;;;;;14.43;13.02;;;24.50;39.10;;;;;;20576;6823;336593;-74
2022/04/14 09:14:02;;;;;;;14.82;13.23;;;24.70;38.20;;;;;;20558;6823;314773;-74
2022/04/14 09:16:30;;;;;;;13.30;11.13;;;24.90;38.70;;;;;;20765;6823;117870;-73
2022/04/14 09:18:55;;;;;;;15.15;13.00;;;24.90;39.20;;;;;;20535;6823;306728;-73
2022/04/14 09:21:20;;;;;;;14.40;12.90;;;24.90;39.20;;;;;;20781;6823;117334;-73
2022/04/14 09:23:52;;;;;;;12.90;11.70;;;24.90;38.90;;;;;;20793;6823;117377;-74
2022/04/14 09:26:23;;;;;;;15.03;12.40;;;24.50;39.00;;;;;;20786;6823;117380;-75
2022/04/14 09:29:01;;;;;;;11.93;10.77;;;24.50;39.00;;;;;;20751;6823;117926;-75
2022/04/14 09:31:27;;;;;;;16.33;12.63;;;24.40;39.40;;;;;;20777;6823;117910;-75
2022/04/14 09:33:52;;;;;;;14.87;13.40;;;24.30;39.80;;;;;;20555;6823;278096;-74
2022/04/14 09:36:20;;;;;;;15.60;14.10;;;24.50;39.40;;;;;;20574;6821;307487;-74
2022/04/14 09:38:59;;;;;;;13.97;12.73;;;24.80;38.80;;;;;;20758;6822;117364;-74
2022/04/14 09:41:31;;;;;;;14.03;12.83;;;24.90;38.90;;;;;;20783;6822;118190;-74
2022/04/14 09:43:54;;;;;;;15.43;13.80;;;24.70;39.20;;;;;;20567;6822;305998;-75
2022/04/14 09:46:19;;;;;;;18.10;13.60;;;24.80;39.10;;;;;;20555;6822;278158;-74
2022/04/14 09:49:07;;;;;;;17.23;12.97;;;25.10;38.40;;;;;;20561;6822;308695;-74
2022/04/14 09:51:33;;;;;;;14.18;12.88;;;25.60;38.60;;;;;;20572;6822;308041;-74
2022/04/14 09:54:16;;;;;;;16.27;13.43;;;25.60;38.30;;;;;;20570;6822;310250;-73
2022/04/14 09:56:41;;;;;;;12.53;11.33;;;25.90;37.80;;;;;;20768;6823;123598;-73
2022/04/14 09:59:07;;;;;;;14.13;12.53;;;25.80;37.60;;;;;;20785;6823;117820;-74
2022/04/14 10:01:32;;;;;;;13.97;12.73;;;25.60;38.00;;;;;;20775;6822;117466;-75
2022/04/14 10:03:57;;;;;;;17.00;12.17;;;25.40;38.00;;;;;;20789;6822;118133;-76
2022/04/14 10:06:23;;;;;;;16.55;14.85;;;25.30;39.30;;;;;;20539;6838;336531;-73
2022/04/14 10:08:49;;;;;;;15.40;13.77;;;25.50;38.80;;;;;;20717;6840;118465;-77
2022/04/14 10:11:14;;;;;;;17.77;14.93;;;25.50;38.30;;;;;;20528;6838;279080;-76
2022/04/14 10:13:40;;;;;;;20.00;14.33;;;25.40;38.00;;;;;;20735;6840;118120;-76
2022/04/14 10:16:07;;;;;;;16.58;14.98;;;25.40;38.50;;;;;;20452;6840;311116;-75
2022/04/14 10:18:32;;;;;;;16.40;13.95;;;25.30;38.70;;;;;;20668;6838;117589;-74
2022/04/14 10:21:00;;;;;;;16.10;14.45;;;25.30;37.90;;;;;;20497;6838;280114;-75
2022/04/14 10:23:26;;;;;;;14.80;13.40;;;25.30;37.90;;;;;;20734;6838;119132;-72
2022/04/14 10:25:51;;;;;;;16.23;14.70;;;25.20;38.10;;;;;;20525;6838;336966;-73
2022/04/14 10:28:19;;;;;;;14.30;12.90;;;25.20;38.60;;;;;;20731;6838;118876;-75
2022/04/14 10:30:46;;;;;;;16.10;14.53;;;25.20;38.50;;;;;;20555;6822;278784;-72
2022/04/14 10:33:12;;;;;;;16.67;15.23;;;25.40;39.10;;;;;;20577;6822;307884;-75
2022/04/14 10:35:38;;;;;;;16.03;14.27;;;25.60;38.30;;;;;;20776;6822;118589;-75
2022/04/14 10:38:07;;;;;;;15.23;13.63;;;25.40;38.50;;;;;;20783;6822;118125;-76
2022/04/14 10:40:34;;;;;;;15.68;14.15;;;25.40;38.90;;;;;;20516;6838;342198;-76
2022/04/14 10:42:59;;;;;;;13.70;12.50;;;25.40;38.80;;;;;;20609;6823;118462;-79
2022/04/14 10:45:25;;;;;;;15.40;13.95;;;25.40;38.60;;;;;;20521;6840;337836;-78
2022/04/14 10:47:54;;;;;;;15.80;14.20;;;25.90;38.00;;;;;;20524;6838;282414;-78
2022/04/14 10:50:23;;;;;;;15.00;13.60;;;25.80;37.90;;;;;;20487;6840;277805;-78
2022/04/14 10:53:06;;;;;;;18.20;15.03;;;26.10;37.90;;;;;;20480;6840;278044;-78
2022/04/14 10:55:40;;;;;;;16.67;13.73;;;26.30;37.00;;;;;;20708;6840;117406;-77
2022/04/14 10:58:05;;;;;;;14.13;12.83;;;26.20;37.80;;;;;;20721;6838;117566;-78
2022/04/14 11:00:31;;;;;;;16.58;15.10;;;26.00;38.10;;;;;;20526;6838;337069;-73
2022/04/14 11:03:13;;;;;;;17.17;14.23;;;26.00;37.80;;;;;;20710;6838;118793;-78
2022/04/14 11:05:42;;;;;;;15.20;13.67;;;25.90;37.70;;;;;;20738;6838;117422;-76
2022/04/14 11:08:25;;;;;;;16.85;13.57;;;25.60;38.00;;;;;;20490;6836;341737;-77
2022/04/14 11:11:07;;;;;;;15.07;13.27;;;25.70;38.50;;;;;;20510;6836;282171;-76
2022/04/14 11:13:53;;;;;;;14.27;12.97;;;26.00;38.30;;;;;;20731;6836;117886;-76
2022/04/14 11:16:44;;;;;;;15.43;12.67;;;26.00;38.10;;;;;;20713;6836;117829;-76
2022/04/14 11:19:26;;;;;;;14.57;12.73;;;25.80;38.30;;;;;;20733;6836;117581;-75
2022/04/14 11:21:58;;;;;;;13.47;11.93;;;25.60;38.70;;;;;;20714;6836;118673;-75
2022/04/14 11:24:41;;;;;;;13.97;12.67;;;25.30;39.10;;;;;;20736;6838;117452;-74
2022/04/14 11:27:21;;;;;;;14.93;13.60;;;25.30;39.10;;;;;;20741;6823;118023;-78
2022/04/14 11:29:46;;;;;;;15.20;12.53;;;25.30;39.60;;;;;;20772;6823;117720;-74
2022/04/14 11:32:16;;;;;;;14.47;13.03;;;25.20;38.90;;;;;;20563;6823;311825;-76
2022/04/14 11:34:42;;;;;;;12.83;11.43;;;25.50;39.40;;;;;;20751;6823;117453;-74
2022/04/14 11:37:27;;;;;;;16.37;13.53;;;25.60;38.90;;;;;;20568;6823;309285;-73
2022/04/14 11:40:09;;;;;;;14.73;13.30;;;25.80;38.20;;;;;;20332;6823;307132;-75
2022/04/14 11:42:35;;;;;;;13.70;12.30;;;26.10;37.30;;;;;;20747;6823;117602;-74
2022/04/14 11:45:01;;;;;;;14.17;12.23;;;26.00;37.60;;;;;;20400;6823;336139;-74
2022/04/14 11:47:26;;;;;;;13.10;11.70;;;26.10;38.50;;;;;;20786;6823;118089;-75
2022/04/14 11:49:52;;;;;;;13.43;12.10;;;26.10;38.20;;;;;;20779;6823;117879;-74
2022/04/14 11:52:17;;;;;;;17.30;14.77;;;25.90;38.30;;;;;;20560;6823;278213;-74
2022/04/14 11:54:46;;;;;;;16.00;14.40;;;26.10;37.70;;;;;;20747;6823;117465;-74
2022/04/14 11:57:10;;;;;;;14.80;13.37;;;26.00;38.00;;;;;;20784;6823;120771;-74
2022/04/14 11:59:45;;;;;;;13.33;12.17;;;26.00;38.10;;;;;;20782;6821;117400;-73
2022/04/14 12:02:14;;;;;;;17.45;15.65;;;25.80;38.30;;;;;;20551;6822;307590;-74
2022/04/14 12:04:39;;;;;;;16.17;13.43;;;26.00;37.70;;;;;;20752;6822;118163;-74
2022/04/14 12:07:05;;;;;;;16.52;15.00;;;25.90;37.60;;;;;;20541;6822;336146;-74
2022/04/14 12:09:31;;;;;;;17.57;14.10;;;26.00;37.30;;;;;;20775;6822;117356;-73
2022/04/14 12:11:57;;;;;;;15.10;13.70;;;25.70;38.30;;;;;;20782;6823;117537;-73
2022/04/14 12:14:23;;;;;;;14.13;12.77;;;25.70;37.50;;;;;;20525;6823;298583;-73
2022/04/14 12:16:49;;;;;;;11.65;10.60;;;25.80;37.40;;;;;;20531;6823;277521;-73
2022/04/14 12:19:14;;;;;;;12.97;9.90;;;25.90;36.60;;;;;;20778;6823;118020;-74
2022/04/14 12:21:40;;;;;;;10.95;9.90;;;25.80;36.70;;;;;;20578;6823;313188;-74
2022/04/14 12:24:05;;;;;;;12.93;11.12;;;25.80;36.60;;;;;;20577;6823;336973;-73
2022/04/14 12:26:35;;;;;;;10.77;9.57;;;25.80;36.10;;;;;;20773;6823;118526;-74